createdAt,value
2017-10-04T00:01:58.088Z,10.10
2017-10-04T00:04:26.300Z,10.20
2017-10-04T00:06:53.730Z,10.20
2017-10-04T00:09:21.945Z,10.20
2017-10-04T00:11:49.382Z,10.20
2017-10-04T00:14:16.818Z,10.20
2017-10-04T00:16:45.026Z,10.20
2017-10-04T00:19:12.456Z,10.20
2017-10-04T00:21:39.888Z,10.10
2017-10-04T00:24:07.333Z,10.10
2017-10-04T00:26:34.763Z,10.20
2017-10-04T00:29:02.206Z,10.20
2017-10-04T00:31:29.629Z,10.20
2017-10-04T00:33:57.838Z,10.00
2017-10-04T00:36:25.280Z,10.00
2017-10-04T00:38:52.708Z,10.00
2017-10-04T00:41:20.908Z,10.00
2017-10-04T00:43:51.414Z,9.90
2017-10-04T00:46:19.688Z,10.00
2017-10-04T00:48:47.893Z,10.00
2017-10-04T00:51:15.332Z,10.00
2017-10-04T00:53:43.527Z,10.00
2017-10-04T00:56:10.955Z,10.00
2017-10-04T00:58:39.155Z,10.10
2017-10-04T01:01:06.588Z,10.00
2017-10-04T01:03:34.785Z,10.10
2017-10-04T01:06:02.229Z,10.00
2017-10-04T01:08:30.429Z,10.00
2017-10-04T01:11:01.736Z,10.00
2017-10-04T01:13:29.941Z,10.10
2017-10-04T01:15:57.379Z,10.00
2017-10-04T01:18:25.573Z,10.10
2017-10-04T01:20:53.013Z,10.10
2017-10-04T01:23:21.203Z,9.90
2017-10-04T01:25:48.640Z,9.90
2017-10-04T01:28:16.839Z,10.00
2017-10-04T01:30:44.260Z,9.90
2017-10-04T01:33:12.460Z,9.90
2017-10-04T01:35:39.912Z,9.90
2017-10-04T01:38:07.337Z,9.90
2017-10-04T01:40:34.814Z,9.90
2017-10-04T01:43:03.021Z,9.90
2017-10-04T01:45:30.445Z,9.90
2017-10-04T01:47:58.637Z,9.90
2017-10-04T01:50:26.071Z,9.80
2017-10-04T01:52:54.273Z,9.90
2017-10-04T01:55:21.709Z,9.80
2017-10-04T01:57:49.906Z,9.80
2017-10-04T02:00:17.327Z,9.80
2017-10-04T02:02:45.534Z,9.80
2017-10-04T02:05:12.957Z,9.80
2017-10-04T02:07:40.384Z,9.70
2017-10-04T02:10:07.821Z,9.70
2017-10-04T02:12:35.257Z,9.70
2017-10-04T02:15:02.685Z,9.70
2017-10-04T02:17:30.891Z,9.70
2017-10-04T02:19:58.316Z,9.70
2017-10-04T02:22:26.516Z,9.60
2017-10-04T02:24:53.936Z,9.60
2017-10-04T02:27:21.378Z,9.70
2017-10-04T02:29:48.804Z,9.70
2017-10-04T02:32:16.264Z,9.70
2017-10-04T02:34:43.698Z,9.70
2017-10-04T02:37:11.133Z,9.70
2017-10-04T02:39:39.332Z,9.70
2017-10-04T02:42:06.757Z,9.70
2017-10-04T02:44:34.186Z,9.70
2017-10-04T02:47:01.624Z,9.70
2017-10-04T02:49:29.052Z,9.70
2017-10-04T02:51:56.478Z,9.70
2017-10-04T02:54:23.926Z,9.70
2017-10-04T02:56:51.349Z,9.70
2017-10-04T02:59:18.782Z,9.70
2017-10-04T03:01:46.234Z,9.70
2017-10-04T03:04:13.691Z,9.70
2017-10-04T03:06:41.130Z,9.80
2017-10-04T03:09:09.340Z,9.80
2017-10-04T03:11:36.768Z,9.80
2017-10-04T03:14:04.979Z,9.80
2017-10-04T03:16:32.417Z,9.80
2017-10-04T03:19:04.684Z,9.80
2017-10-04T03:21:32.113Z,9.80
2017-10-04T03:23:59.544Z,9.80
2017-10-04T03:26:26.981Z,9.80
2017-10-04T03:28:55.189Z,9.80
2017-10-04T03:31:22.622Z,9.80
2017-10-04T03:33:50.064Z,9.80
2017-10-04T03:36:17.496Z,9.70
2017-10-04T03:38:44.920Z,9.70
2017-10-04T03:41:12.358Z,9.80
2017-10-04T03:43:42.610Z,9.80
2017-10-04T03:46:10.036Z,9.80
2017-10-04T03:48:37.477Z,9.80
2017-10-04T03:51:04.904Z,9.80
2017-10-04T03:53:32.338Z,9.70
2017-10-04T03:56:00.543Z,9.60
2017-10-04T03:58:28.030Z,9.60
2017-10-04T04:00:55.477Z,9.70
2017-10-04T04:03:22.909Z,9.60
2017-10-04T04:05:50.349Z,9.60
2017-10-04T04:08:18.535Z,9.60
2017-10-04T04:10:45.977Z,9.60
2017-10-04T04:13:14.172Z,9.50
2017-10-04T04:15:41.601Z,9.50
2017-10-04T04:18:09.805Z,9.50
2017-10-04T04:20:37.253Z,9.50
2017-10-04T04:23:04.685Z,9.40
2017-10-04T04:25:32.140Z,9.50
2017-10-04T04:28:03.285Z,9.60
2017-10-04T04:30:30.704Z,9.60
2017-10-04T04:32:58.142Z,9.50
2017-10-04T04:35:25.580Z,9.50
2017-10-04T04:38:04.874Z,9.40
2017-10-04T04:40:38.009Z,9.30
2017-10-04T04:43:06.493Z,9.40
2017-10-04T04:45:33.926Z,9.50
2017-10-04T04:48:02.129Z,9.50
2017-10-04T04:50:29.553Z,9.50
2017-10-04T04:52:57.772Z,9.60
2017-10-04T04:55:25.201Z,9.50
2017-10-04T04:57:53.402Z,9.60
2017-10-04T05:00:20.838Z,9.60
2017-10-04T05:02:48.267Z,9.60
2017-10-04T05:05:15.719Z,9.60
2017-10-04T05:07:45.653Z,9.60
2017-10-04T05:10:13.068Z,9.60
2017-10-04T05:12:40.506Z,9.60
2017-10-04T05:15:07.937Z,9.60
2017-10-04T05:17:35.401Z,9.60
2017-10-04T05:20:03.602Z,9.70
2017-10-04T05:22:31.028Z,9.60
2017-10-04T05:24:58.464Z,9.70
2017-10-04T05:27:27.672Z,9.70
2017-10-04T05:29:55.881Z,9.70
2017-10-04T05:32:23.320Z,9.70
2017-10-04T05:34:50.783Z,9.70
2017-10-04T05:37:18.203Z,9.60
2017-10-04T05:39:45.637Z,9.60
2017-10-04T05:42:15.064Z,9.60
2017-10-04T05:44:43.263Z,9.50
2017-10-04T05:47:10.689Z,9.50
2017-10-04T05:49:38.157Z,9.60
2017-10-04T05:52:05.587Z,9.60
2017-10-04T05:54:33.049Z,9.70
2017-10-04T05:57:00.464Z,9.70
2017-10-04T05:59:42.777Z,9.70
2017-10-04T06:02:14.068Z,9.70
2017-10-04T06:04:41.516Z,9.70
2017-10-04T06:07:08.946Z,9.60
2017-10-04T06:09:41.261Z,9.70
2017-10-04T06:12:09.461Z,9.80
2017-10-04T06:14:36.891Z,9.80
2017-10-04T06:17:05.084Z,9.90
2017-10-04T06:19:32.521Z,9.90
2017-10-04T06:22:00.725Z,9.90
2017-10-04T06:24:28.158Z,9.90
2017-10-04T06:26:56.354Z,10.00
2017-10-04T06:29:30.717Z,10.00
2017-10-04T06:31:58.159Z,10.00
2017-10-04T06:34:25.604Z,10.00
2017-10-04T06:36:53.029Z,10.10
2017-10-04T06:39:21.231Z,10.20
2017-10-04T06:41:48.668Z,10.10
2017-10-04T06:44:16.105Z,10.20
2017-10-04T06:46:44.303Z,10.50
2017-10-04T06:49:11.749Z,10.50
2017-10-04T06:51:39.956Z,10.60
2017-10-04T06:54:07.397Z,10.60
2017-10-04T06:56:34.836Z,10.70
2017-10-04T06:59:04.023Z,10.80
2017-10-04T07:01:32.245Z,10.90
2017-10-04T07:03:59.681Z,10.90
2017-10-04T07:06:27.125Z,10.80
2017-10-04T07:08:54.565Z,10.90
2017-10-04T07:11:46.964Z,11.10
2017-10-04T07:14:14.395Z,11.00
2017-10-04T07:16:48.060Z,11.10
2017-10-04T07:19:15.502Z,11.00
2017-10-04T07:21:42.940Z,11.00
2017-10-04T07:24:10.384Z,11.00
2017-10-04T07:26:37.838Z,11.00
2017-10-04T07:29:05.295Z,11.00
2017-10-04T07:31:32.782Z,11.10
2017-10-04T07:34:00.212Z,11.20
2017-10-04T07:36:27.653Z,11.40
2017-10-04T07:38:55.099Z,11.60
2017-10-04T07:41:23.312Z,11.70
2017-10-04T07:43:50.735Z,11.70
2017-10-04T07:46:19.201Z,11.80
2017-10-04T07:48:47.408Z,12.00
2017-10-04T07:51:14.865Z,12.00
2017-10-04T07:53:42.302Z,12.30
2017-10-04T07:56:09.736Z,12.80
2017-10-04T07:58:37.932Z,13.70
2017-10-04T08:01:05.368Z,13.70
2017-10-04T08:03:33.564Z,14.00
2017-10-04T08:06:00.993Z,14.00
2017-10-04T08:08:28.436Z,13.90
2017-10-04T08:10:55.874Z,13.80
2017-10-04T08:13:23.330Z,13.80
2017-10-04T08:15:50.770Z,13.90
2017-10-04T08:18:18.203Z,14.20
2017-10-04T08:20:45.641Z,14.40
2017-10-04T08:23:13.081Z,14.40
2017-10-04T08:25:40.545Z,14.30
2017-10-04T08:28:07.992Z,14.30
2017-10-04T08:30:35.417Z,14.30
2017-10-04T08:33:02.873Z,14.30
2017-10-04T08:35:30.315Z,14.30
2017-10-04T08:37:57.761Z,14.30
2017-10-04T08:40:25.201Z,14.30
2017-10-04T08:42:53.416Z,14.60
2017-10-04T08:45:20.853Z,14.60
2017-10-04T08:47:56.235Z,14.60
2017-10-04T08:50:23.673Z,14.70
2017-10-04T08:52:51.123Z,14.70
2017-10-04T08:55:21.913Z,14.90
2017-10-04T08:57:50.195Z,15.80
2017-10-04T09:00:18.403Z,15.80
2017-10-04T09:02:45.847Z,15.80
2017-10-04T09:05:25.201Z,15.60
2017-10-04T09:07:52.659Z,15.50
2017-10-04T09:10:20.101Z,15.50
2017-10-04T09:12:47.525Z,15.80
2017-10-04T09:15:14.991Z,16.10
2017-10-04T09:17:43.190Z,17.10
2017-10-04T09:20:10.629Z,17.00
2017-10-04T09:22:38.064Z,17.50
2017-10-04T09:25:05.515Z,17.60
2017-10-04T09:27:32.979Z,17.40
2017-10-04T09:30:00.431Z,17.20
2017-10-04T09:32:27.853Z,17.10
2017-10-04T09:34:55.295Z,17.00
2017-10-04T09:37:22.737Z,16.80
2017-10-04T09:39:50.178Z,16.70
2017-10-04T09:42:18.384Z,16.40
2017-10-04T09:44:49.906Z,16.40
2017-10-04T09:47:18.105Z,16.50
2017-10-04T09:49:45.536Z,16.50
2017-10-04T09:52:13.743Z,16.90
2017-10-04T09:54:41.179Z,16.80
2017-10-04T09:57:08.613Z,16.90
2017-10-04T09:59:36.054Z,17.10
2017-10-04T10:02:03.496Z,17.30
2017-10-04T10:04:30.934Z,17.30
2017-10-04T10:06:58.389Z,17.20
2017-10-04T10:09:25.812Z,17.20
2017-10-04T10:11:54.019Z,16.90
2017-10-04T10:14:21.449Z,16.80
2017-10-04T10:16:54.172Z,16.70
2017-10-04T10:19:20.228Z,16.50
2017-10-04T10:21:47.673Z,16.40
2017-10-04T10:24:15.094Z,16.50
2017-10-04T10:26:42.532Z,16.50
2017-10-04T10:29:09.974Z,16.50
2017-10-04T10:31:38.160Z,16.20
2017-10-04T10:34:05.613Z,16.20
2017-10-04T10:36:33.809Z,16.20
2017-10-04T10:39:01.250Z,16.20
2017-10-04T10:41:28.677Z,16.00
2017-10-04T10:43:56.108Z,16.00
2017-10-04T10:46:23.552Z,16.00
2017-10-04T10:48:50.977Z,15.90
2017-10-04T10:51:18.539Z,15.90
2017-10-04T10:53:45.986Z,16.00
2017-10-04T10:56:13.489Z,16.00
2017-10-04T10:58:41.936Z,16.20
2017-10-04T11:01:12.391Z,16.10
2017-10-04T11:03:40.050Z,16.20
2017-10-04T11:06:07.549Z,16.20
2017-10-04T11:08:35.031Z,16.40
2017-10-04T11:11:02.547Z,16.60
2017-10-04T11:13:30.005Z,16.60
2017-10-04T11:15:58.500Z,16.40
2017-10-04T11:18:25.929Z,16.40
2017-10-04T11:21:05.940Z,16.50
2017-10-04T11:23:34.340Z,16.40
2017-10-04T11:26:02.528Z,16.30
2017-10-04T11:28:29.973Z,16.30
2017-10-04T11:30:57.413Z,16.50
2017-10-04T11:33:24.853Z,16.70
2017-10-04T11:35:53.062Z,16.90
2017-10-04T11:38:20.497Z,16.80
2017-10-04T11:40:47.926Z,17.00
2017-10-04T11:43:16.128Z,17.00
2017-10-04T11:45:43.560Z,17.00
2017-10-04T11:48:11.765Z,16.90
2017-10-04T11:50:39.196Z,16.90
2017-10-04T11:53:07.410Z,17.00
2017-10-04T11:55:34.837Z,16.90
2017-10-04T11:58:03.060Z,17.00
2017-10-04T12:00:30.502Z,17.00
2017-10-04T12:02:57.924Z,17.10
2017-10-04T12:05:25.355Z,17.20
2017-10-04T12:07:53.617Z,17.10
2017-10-04T12:10:22.012Z,17.10
2017-10-04T12:12:49.444Z,17.10
2017-10-04T12:15:16.889Z,17.10
2017-10-04T12:17:44.341Z,17.10
2017-10-04T12:20:11.768Z,17.10
2017-10-04T12:22:39.197Z,17.00
2017-10-04T12:25:06.642Z,16.90
2017-10-04T12:27:34.075Z,17.00
2017-10-04T12:30:01.651Z,17.00
2017-10-04T12:32:29.088Z,17.00
2017-10-04T12:34:56.545Z,17.20
2017-10-04T12:37:23.997Z,17.40
2017-10-04T12:40:04.080Z,17.50
2017-10-04T12:42:31.514Z,17.60
2017-10-04T12:44:58.997Z,17.60
2017-10-04T12:47:26.430Z,17.70
2017-10-04T12:49:53.874Z,17.60
2017-10-04T12:52:21.300Z,17.70
2017-10-04T12:54:48.746Z,17.70
2017-10-04T12:57:16.942Z,17.60
2017-10-04T12:59:44.407Z,17.60
2017-10-04T13:02:11.837Z,17.60
2017-10-04T13:04:42.093Z,17.30
2017-10-04T13:07:10.273Z,17.30
2017-10-04T13:09:37.717Z,17.30
2017-10-04T13:12:05.157Z,17.40
2017-10-04T13:14:33.371Z,17.40
2017-10-04T13:17:01.718Z,17.30
2017-10-04T13:19:34.590Z,17.30
2017-10-04T13:22:13.768Z,17.30
2017-10-04T13:24:41.381Z,17.30
2017-10-04T13:27:09.577Z,17.40
2017-10-04T13:29:37.034Z,17.30
2017-10-04T13:32:04.460Z,17.30
2017-10-04T13:34:31.954Z,17.20
2017-10-04T13:36:59.374Z,17.30
2017-10-04T13:39:27.571Z,17.20
2017-10-04T13:41:55.017Z,17.20
2017-10-04T13:44:23.214Z,17.20
2017-10-04T13:46:50.753Z,17.20
2017-10-04T13:49:18.210Z,17.30
2017-10-04T13:51:46.476Z,17.10
2017-10-04T13:54:13.901Z,17.00
2017-10-04T13:56:41.340Z,17.00
2017-10-04T13:59:16.658Z,17.00
2017-10-04T14:01:44.094Z,17.00
2017-10-04T14:04:12.313Z,17.00
2017-10-04T14:06:39.781Z,17.00
2017-10-04T14:09:07.220Z,16.90
2017-10-04T14:11:34.672Z,16.90
2017-10-04T14:14:08.305Z,16.90
2017-10-04T14:16:35.732Z,16.90
2017-10-04T14:19:03.937Z,16.90
2017-10-04T14:21:31.401Z,16.90
2017-10-04T14:23:58.853Z,16.90
2017-10-04T14:26:26.319Z,16.80
2017-10-04T14:31:50.783Z,16.80
2017-10-04T14:34:18.226Z,16.70
2017-10-04T14:36:45.732Z,16.80
2017-10-04T14:39:13.198Z,16.80
2017-10-04T14:41:40.640Z,16.60
2017-10-04T14:44:08.102Z,16.70
2017-10-04T14:46:35.585Z,16.80
2017-10-04T14:49:03.013Z,16.60
2017-10-04T14:51:30.466Z,16.70
2017-10-04T14:53:57.913Z,16.70
2017-10-04T14:56:25.358Z,16.50
2017-10-04T14:58:52.820Z,16.60
2017-10-04T15:01:25.020Z,16.50
2017-10-04T15:03:52.500Z,16.50
2017-10-04T15:06:19.949Z,16.60
2017-10-04T15:08:47.448Z,16.60
2017-10-04T15:11:14.912Z,16.50
2017-10-04T15:13:42.386Z,16.40
2017-10-04T15:16:09.860Z,16.30
2017-10-04T15:18:37.312Z,16.30
2017-10-04T15:21:08.702Z,16.30
2017-10-04T15:23:36.919Z,16.10
2017-10-04T15:26:04.423Z,16.00
2017-10-04T15:28:56.725Z,15.90
2017-10-04T15:31:24.168Z,15.90
2017-10-04T15:33:51.646Z,16.00
2017-10-04T15:36:19.098Z,15.90
2017-10-04T15:38:46.559Z,15.90
2017-10-04T15:41:14.017Z,15.90
2017-10-04T15:43:41.503Z,15.80
2017-10-04T15:46:08.975Z,15.80
2017-10-04T15:48:37.183Z,15.60
2017-10-04T15:51:05.414Z,15.50
2017-10-04T15:53:32.853Z,15.50
2017-10-04T15:56:00.476Z,15.60
2017-10-04T15:58:27.927Z,15.60
2017-10-04T16:00:55.394Z,15.60
2017-10-04T16:03:22.832Z,15.60
2017-10-04T16:05:57.302Z,15.50
2017-10-04T16:08:24.756Z,15.40
2017-10-04T16:10:52.255Z,15.30
2017-10-04T16:13:20.457Z,15.30
2017-10-04T16:15:47.908Z,15.20
2017-10-04T16:18:46.839Z,15.10
2017-10-04T16:21:15.096Z,14.90
2017-10-04T16:23:50.549Z,14.90
2017-10-04T16:26:18.006Z,14.90
2017-10-04T16:28:49.316Z,14.90
2017-10-04T16:31:16.757Z,14.80
2017-10-04T16:33:45.760Z,14.70
2017-10-04T16:36:13.214Z,14.70
2017-10-04T16:38:40.644Z,14.70
2017-10-04T16:41:08.107Z,14.60
2017-10-04T16:43:35.588Z,14.60
2017-10-04T16:46:03.788Z,14.70
2017-10-04T16:48:32.233Z,14.60
2017-10-04T16:51:00.441Z,14.60
2017-10-04T16:53:27.886Z,14.60
2017-10-04T16:55:55.361Z,14.60
2017-10-04T16:58:22.813Z,14.60
2017-10-04T17:00:50.286Z,14.60
2017-10-04T17:03:17.713Z,14.50
2017-10-04T17:05:49.276Z,14.50
2017-10-04T17:08:16.734Z,14.50
2017-10-04T17:10:44.173Z,14.50
2017-10-04T17:13:16.033Z,14.60
2017-10-04T17:15:44.252Z,14.50
2017-10-04T17:18:11.711Z,14.50
2017-10-04T17:20:49.445Z,14.50
2017-10-04T17:23:17.659Z,14.40
2017-10-04T17:25:45.102Z,14.40
2017-10-04T17:28:12.583Z,14.40
2017-10-04T17:30:40.032Z,14.40
2017-10-04T17:33:07.497Z,14.50
2017-10-04T17:35:41.951Z,14.40
2017-10-04T17:38:09.392Z,14.50
2017-10-04T17:40:36.843Z,14.50
2017-10-04T17:43:04.291Z,14.40
2017-10-04T17:45:31.727Z,14.40
2017-10-04T17:47:59.240Z,14.40
2017-10-04T17:50:26.665Z,14.50
2017-10-04T17:52:54.126Z,14.40
2017-10-04T17:55:21.564Z,14.40
2017-10-04T17:57:56.203Z,14.40
2017-10-04T18:00:23.708Z,14.30
2017-10-04T18:02:51.910Z,14.20
2017-10-04T18:05:19.357Z,14.20
2017-10-04T18:07:47.829Z,14.20
2017-10-04T18:10:15.282Z,14.20
2017-10-04T18:12:43.488Z,14.10
2017-10-04T18:15:10.926Z,14.00
2017-10-04T18:17:38.359Z,14.00
2017-10-04T18:20:05.789Z,14.00
2017-10-04T18:22:33.269Z,14.00
2017-10-04T18:25:00.697Z,14.00
2017-10-04T18:27:28.131Z,14.00
2017-10-04T18:29:56.578Z,14.00
2017-10-04T18:32:24.802Z,14.00
2017-10-04T18:34:52.420Z,14.10
2017-10-04T18:37:19.866Z,14.20
2017-10-04T18:39:48.067Z,14.00
2017-10-04T18:42:16.530Z,14.00
2017-10-04T18:44:44.737Z,14.00
2017-10-04T18:47:12.932Z,14.10
2017-10-04T18:49:40.360Z,14.10
2017-10-04T18:52:07.800Z,14.20
2017-10-04T18:54:35.252Z,14.20
2017-10-04T18:57:03.490Z,14.20
2017-10-04T18:59:30.941Z,14.10
2017-10-04T19:01:58.401Z,14.10
2017-10-04T19:04:25.847Z,14.10
2017-10-04T19:06:53.321Z,14.20
2017-10-04T19:09:20.777Z,14.20
2017-10-04T19:11:49.300Z,14.20
2017-10-04T19:14:16.754Z,14.20
2017-10-04T19:16:44.963Z,14.30
2017-10-04T19:19:12.421Z,14.20
2017-10-04T19:21:39.854Z,14.20
2017-10-04T19:24:07.289Z,14.20
2017-10-04T19:26:34.763Z,14.20
2017-10-04T19:29:12.611Z,14.20
2017-10-04T19:31:40.068Z,14.20
2017-10-04T19:34:07.517Z,14.20
2017-10-04T19:36:34.987Z,14.10
2017-10-04T19:39:02.456Z,14.10
2017-10-04T19:41:29.907Z,14.10
2017-10-04T19:43:57.359Z,14.00
2017-10-04T19:46:24.836Z,14.00
2017-10-04T19:48:52.318Z,14.00
2017-10-04T19:51:20.526Z,14.00
2017-10-04T19:53:47.977Z,13.90
2017-10-04T19:56:15.431Z,14.00
2017-10-04T19:58:42.864Z,14.00
2017-10-04T20:01:10.304Z,14.00
2017-10-04T20:03:38.545Z,13.90
2017-10-04T20:06:05.993Z,13.80
2017-10-04T20:08:33.463Z,13.90
2017-10-04T20:11:00.926Z,14.00
2017-10-04T20:13:28.369Z,13.90
2017-10-04T20:15:55.814Z,13.80
2017-10-04T20:18:23.264Z,13.90
2017-10-04T20:20:50.718Z,13.90
2017-10-04T20:23:18.174Z,13.90
2017-10-04T20:25:45.614Z,13.90
2017-10-04T20:28:13.109Z,13.90
2017-10-04T20:30:40.548Z,13.90
2017-10-04T20:33:07.992Z,13.80
2017-10-04T20:35:35.444Z,13.80
2017-10-04T20:38:02.906Z,13.80
2017-10-04T20:40:30.347Z,13.80
2017-10-04T20:42:58.550Z,13.80
2017-10-04T20:45:27.109Z,13.70
2017-10-04T20:47:54.571Z,13.80
2017-10-04T20:50:22.017Z,13.80
2017-10-04T20:52:50.250Z,13.80
2017-10-04T20:55:17.697Z,13.80
2017-10-04T20:57:45.139Z,13.80
2017-10-04T21:00:12.596Z,13.80
2017-10-04T21:02:40.061Z,13.90
2017-10-04T21:05:07.525Z,13.80
2017-10-04T21:07:34.978Z,13.80
2017-10-04T21:10:02.437Z,13.90
2017-10-04T21:12:29.918Z,13.80
2017-10-04T21:14:57.369Z,13.90
2017-10-04T21:17:24.803Z,14.00
2017-10-04T21:19:52.258Z,14.00
2017-10-04T21:22:19.706Z,14.00
2017-10-04T21:24:47.171Z,14.00
2017-10-04T21:27:14.609Z,13.90
2017-10-04T21:29:42.062Z,13.90
2017-10-04T21:32:10.260Z,14.00
2017-10-04T21:34:37.697Z,14.00
2017-10-04T21:37:05.167Z,14.00
2017-10-04T21:39:32.605Z,13.90
2017-10-04T21:42:00.054Z,13.90
2017-10-04T21:44:27.502Z,13.90
2017-10-04T21:46:55.718Z,13.90
2017-10-04T21:49:23.152Z,13.90
2017-10-04T21:51:50.594Z,13.90
2017-10-04T21:54:18.817Z,13.80
2017-10-04T21:56:46.264Z,13.80
2017-10-04T21:59:13.696Z,13.90
2017-10-04T22:01:41.138Z,13.80
2017-10-04T22:04:09.332Z,13.80
2017-10-04T22:06:36.821Z,13.80
2017-10-04T22:09:04.330Z,13.90
2017-10-04T22:11:32.521Z,13.80
2017-10-04T22:13:59.967Z,13.80
2017-10-04T22:16:27.413Z,13.90
2017-10-04T22:18:56.610Z,13.90
2017-10-04T22:21:24.044Z,13.90
2017-10-04T22:23:51.529Z,14.00
2017-10-04T22:26:19.753Z,13.90
2017-10-04T22:28:47.196Z,13.90
2017-10-04T22:31:14.645Z,13.90
2017-10-04T22:33:42.076Z,13.90
2017-10-04T22:36:10.308Z,14.00
2017-10-04T22:38:37.742Z,13.90
2017-10-04T22:41:05.190Z,14.00
2017-10-04T22:43:32.618Z,14.10
2017-10-04T22:46:00.060Z,14.10
2017-10-04T22:48:27.560Z,14.10
2017-10-04T22:50:56.030Z,14.10
2017-10-04T22:53:23.456Z,14.10
2017-10-04T22:55:50.907Z,14.10
2017-10-04T22:58:18.378Z,14.10
2017-10-04T23:00:45.805Z,14.10
2017-10-04T23:03:13.237Z,14.10
2017-10-04T23:05:40.677Z,14.10
2017-10-04T23:08:08.134Z,14.00
2017-10-04T23:10:35.561Z,14.00
2017-10-04T23:13:03.771Z,13.90
2017-10-04T23:15:31.218Z,14.00
2017-10-04T23:17:58.672Z,14.00
2017-10-04T23:20:26.125Z,14.00
2017-10-04T23:22:53.577Z,13.90
2017-10-04T23:25:21.789Z,13.90
2017-10-04T23:27:49.275Z,13.90
2017-10-04T23:30:16.693Z,13.90
2017-10-04T23:32:44.181Z,13.90
2017-10-04T23:35:11.617Z,13.90
2017-10-04T23:37:39.063Z,14.00
2017-10-04T23:40:06.497Z,13.90
2017-10-04T23:42:33.962Z,13.90
2017-10-04T23:45:01.397Z,14.00
2017-10-04T23:47:28.852Z,14.00
2017-10-04T23:49:56.279Z,14.00
2017-10-04T23:52:23.748Z,14.00
2017-10-04T23:54:51.209Z,14.00
2017-10-04T23:57:18.663Z,14.00
2017-10-04T23:59:46.092Z,13.90
